sensor_id;sensor_type;location;lat;lon;timestamp;P1;durP1;ratioP1;P2;durP2;ratioP2
18499;SDS011;9379;52.134;11.576;2024-03-06T00:02:19;10.07;;;8.60;;
18499;SDS011;9379;52.134;11.576;2024-03-06T00:04:46;9.20;;;8.30;;
18499;SDS011;9379;52.134;11.576;2024-03-06T00:07:14;8.13;;;7.32;;
18499;SDS011;9379;52.134;11.576;2024-03-06T00:09:41;10.48;;;8.95;;
18499;SDS011;9379;52.134;11.576;2024-03-06T00:12:08;8.93;;;7.82;;
18499;SDS011;9379;52.134;11.576;2024-03-06T00:14:35;9.98;;;8.55;;
18499;SDS011;9379;52.134;11.576;2024-03-06T00:17:02;10.10;;;8.85;;
18499;SDS011;9379;52.134;11.576;2024-03-06T00:19:29;9.10;;;7.90;;
18499;SDS011;9379;52.134;11.576;2024-03-06T00:21:56;9.38;;;8.55;;
18499;SDS011;9379;52.134;11.576;2024-03-06T00:24:25;10.23;;;8.98;;
18499;SDS011;9379;52.134;11.576;2024-03-06T00:26:52;9.10;;;8.35;;
18499;SDS011;9379;52.134;11.576;2024-03-06T00:29:19;8.88;;;8.15;;
18499;SDS011;9379;52.134;11.576;2024-03-06T00:31:46;10.93;;;8.38;;
18499;SDS011;9379;52.134;11.576;2024-03-06T00:34:13;9.85;;;8.93;;
18499;SDS011;9379;52.134;11.576;2024-03-06T00:36:40;10.38;;;9.43;;
18499;SDS011;9379;52.134;11.576;2024-03-06T00:39:09;10.00;;;8.95;;
18499;SDS011;9379;52.134;11.576;2024-03-06T00:41:37;9.18;;;8.00;;
18499;SDS011;9379;52.134;11.576;2024-03-06T00:44:04;10.27;;;9.27;;
18499;SDS011;9379;52.134;11.576;2024-03-06T00:46:32;12.75;;;9.90;;
18499;SDS011;9379;52.134;11.576;2024-03-06T00:48:59;10.13;;;8.88;;
18499;SDS011;9379;52.134;11.576;2024-03-06T00:51:26;12.25;;;9.27;;
18499;SDS011;9379;52.134;11.576;2024-03-06T00:53:53;9.57;;;8.55;;
18499;SDS011;9379;52.134;11.576;2024-03-06T00:56:21;13.30;;;9.93;;
18499;SDS011;9379;52.134;11.576;2024-03-06T00:58:49;9.57;;;8.60;;
18499;SDS011;9379;52.134;11.576;2024-03-06T01:01:16;8.75;;;7.85;;
18499;SDS011;9379;52.134;11.576;2024-03-06T01:03:44;9.68;;;8.77;;
18499;SDS011;9379;52.134;11.576;2024-03-06T01:06:10;9.48;;;8.48;;
18499;SDS011;9379;52.134;11.576;2024-03-06T01:08:37;9.52;;;8.63;;
18499;SDS011;9379;52.134;11.576;2024-03-06T01:11:04;9.20;;;8.30;;
18499;SDS011;9379;52.134;11.576;2024-03-06T01:13:32;12.85;;;11.32;;
18499;SDS011;9379;52.134;11.576;2024-03-06T01:16:00;10.35;;;8.27;;
18499;SDS011;9379;52.134;11.576;2024-03-06T01:18:27;8.48;;;7.57;;
18499;SDS011;9379;52.134;11.576;2024-03-06T01:20:54;8.75;;;7.35;;
18499;SDS011;9379;52.134;11.576;2024-03-06T01:23:21;11.27;;;10.13;;
18499;SDS011;9379;52.134;11.576;2024-03-06T01:25:48;9.48;;;8.52;;
18499;SDS011;9379;52.134;11.576;2024-03-06T01:28:15;9.00;;;8.15;;
18499;SDS011;9379;52.134;11.576;2024-03-06T01:30:42;13.70;;;8.57;;
18499;SDS011;9379;52.134;11.576;2024-03-06T01:33:11;9.57;;;8.77;;
18499;SDS011;9379;52.134;11.576;2024-03-06T01:35:37;10.57;;;9.57;;
18499;SDS011;9379;52.134;11.576;2024-03-06T01:38:04;12.95;;;10.43;;
18499;SDS011;9379;52.134;11.576;2024-03-06T01:40:31;10.75;;;9.25;;
18499;SDS011;9379;52.134;11.576;2024-03-06T01:42:58;12.63;;;9.30;;
18499;SDS011;9379;52.134;11.576;2024-03-06T01:45:26;10.07;;;9.10;;
18499;SDS011;9379;52.134;11.576;2024-03-06T01:47:53;10.35;;;9.30;;
18499;SDS011;9379;52.134;11.576;2024-03-06T01:50:21;11.55;;;10.38;;
18499;SDS011;9379;52.134;11.576;2024-03-06T01:52:49;10.88;;;8.63;;
18499;SDS011;9379;52.134;11.576;2024-03-06T01:55:17;9.23;;;8.35;;
18499;SDS011;9379;52.134;11.576;2024-03-06T01:57:45;7.93;;;7.07;;
18499;SDS011;9379;52.134;11.576;2024-03-06T02:00:12;10.77;;;8.35;;
18499;SDS011;9379;52.134;11.576;2024-03-06T02:02:41;8.82;;;8.15;;
18499;SDS011;9379;52.134;11.576;2024-03-06T02:05:09;11.50;;;10.20;;
18499;SDS011;9379;52.134;11.576;2024-03-06T02:07:39;10.60;;;8.93;;
18499;SDS011;9379;52.134;11.576;2024-03-06T02:10:07;13.38;;;9.27;;
18499;SDS011;9379;52.134;11.576;2024-03-06T02:12:37;13.93;;;9.65;;
18499;SDS011;9379;52.134;11.576;2024-03-06T02:15:05;12.60;;;10.13;;
18499;SDS011;9379;52.134;11.576;2024-03-06T02:17:38;13.32;;;10.45;;
18499;SDS011;9379;52.134;11.576;2024-03-06T02:20:07;10.18;;;9.05;;
18499;SDS011;9379;52.134;11.576;2024-03-06T02:22:38;12.77;;;11.40;;
18499;SDS011;9379;52.134;11.576;2024-03-06T02:25:06;11.32;;;10.30;;
18499;SDS011;9379;52.134;11.576;2024-03-06T02:27:34;13.25;;;10.43;;
18499;SDS011;9379;52.134;11.576;2024-03-06T02:30:01;12.55;;;11.25;;
18499;SDS011;9379;52.134;11.576;2024-03-06T02:32:28;10.02;;;9.02;;
18499;SDS011;9379;52.134;11.576;2024-03-06T02:34:55;10.60;;;9.52;;
18499;SDS011;9379;52.134;11.576;2024-03-06T02:37:22;10.25;;;8.82;;
18499;SDS011;9379;52.134;11.576;2024-03-06T02:39:51;12.75;;;9.40;;
18499;SDS011;9379;52.134;11.576;2024-03-06T02:42:18;10.32;;;9.27;;
18499;SDS011;9379;52.134;11.576;2024-03-06T02:54:56;13.55;;;10.68;;
18499;SDS011;9379;52.134;11.576;2024-03-06T02:57:23;10.65;;;9.55;;
18499;SDS011;9379;52.134;11.576;2024-03-06T02:59:52;14.52;;;10.70;;
18499;SDS011;9379;52.134;11.576;2024-03-06T03:02:19;18.85;;;11.63;;
18499;SDS011;9379;52.134;11.576;2024-03-06T03:04:46;11.63;;;10.20;;
18499;SDS011;9379;52.134;11.576;2024-03-06T03:07:14;9.20;;;8.50;;
18499;SDS011;9379;52.134;11.576;2024-03-06T03:09:41;12.35;;;9.27;;
18499;SDS011;9379;52.134;11.576;2024-03-06T03:12:09;16.55;;;11.32;;
18499;SDS011;9379;52.134;11.576;2024-03-06T03:14:36;10.60;;;9.63;;
18499;SDS011;9379;52.134;11.576;2024-03-06T03:17:03;12.30;;;11.00;;
18499;SDS011;9379;52.134;11.576;2024-03-06T03:19:30;27.00;;;11.13;;
18499;SDS011;9379;52.134;11.576;2024-03-06T03:21:57;12.43;;;9.55;;
18499;SDS011;9379;52.134;11.576;2024-03-06T03:24:24;11.70;;;10.57;;
18499;SDS011;9379;52.134;11.576;2024-03-06T03:26:52;19.52;;;12.43;;
18499;SDS011;9379;52.134;11.576;2024-03-06T03:29:20;14.65;;;12.20;;
18499;SDS011;9379;52.134;11.576;2024-03-06T03:31:47;13.32;;;10.23;;
18499;SDS011;9379;52.134;11.576;2024-03-06T03:34:14;13.55;;;10.52;;
18499;SDS011;9379;52.134;11.576;2024-03-06T03:36:41;15.93;;;11.18;;
18499;SDS011;9379;52.134;11.576;2024-03-06T03:39:09;16.88;;;12.98;;
18499;SDS011;9379;52.134;11.576;2024-03-06T03:41:44;12.73;;;9.88;;
18499;SDS011;9379;52.134;11.576;2024-03-06T03:44:11;13.15;;;10.27;;
18499;SDS011;9379;52.134;11.576;2024-03-06T03:46:40;11.13;;;10.00;;
18499;SDS011;9379;52.134;11.576;2024-03-06T03:49:07;9.52;;;8.57;;
18499;SDS011;9379;52.134;11.576;2024-03-06T03:51:35;11.25;;;9.30;;
18499;SDS011;9379;52.134;11.576;2024-03-06T03:54:02;12.15;;;10.82;;
18499;SDS011;9379;52.134;11.576;2024-03-06T03:56:29;13.25;;;11.82;;
18499;SDS011;9379;52.134;11.576;2024-03-06T03:58:57;12.93;;;10.85;;
18499;SDS011;9379;52.134;11.576;2024-03-06T04:01:24;12.93;;;11.15;;
18499;SDS011;9379;52.134;11.576;2024-03-06T04:03:52;12.23;;;10.75;;
18499;SDS011;9379;52.134;11.576;2024-03-06T04:06:19;11.82;;;10.75;;
18499;SDS011;9379;52.134;11.576;2024-03-06T04:08:46;10.27;;;9.23;;
18499;SDS011;9379;52.134;11.576;2024-03-06T04:11:13;12.55;;;9.95;;
18499;SDS011;9379;52.134;11.576;2024-03-06T04:13:40;11.75;;;10.60;;
18499;SDS011;9379;52.134;11.576;2024-03-06T04:16:07;13.05;;;11.55;;
18499;SDS011;9379;52.134;11.576;2024-03-06T04:18:34;11.82;;;9.98;;
18499;SDS011;9379;52.134;11.576;2024-03-06T04:21:03;9.57;;;8.68;;
18499;SDS011;9379;52.134;11.576;2024-03-06T04:23:31;13.35;;;10.27;;
18499;SDS011;9379;52.134;11.576;2024-03-06T04:25:59;11.27;;;9.63;;
18499;SDS011;9379;52.134;11.576;2024-03-06T04:28:25;10.68;;;9.77;;
18499;SDS011;9379;52.134;11.576;2024-03-06T04:30:52;10.63;;;9.52;;
18499;SDS011;9379;52.134;11.576;2024-03-06T04:33:19;10.82;;;9.68;;
18499;SDS011;9379;52.134;11.576;2024-03-06T04:35:46;11.60;;;9.90;;
18499;SDS011;9379;52.134;11.576;2024-03-06T04:38:15;11.02;;;10.02;;
18499;SDS011;9379;52.134;11.576;2024-03-06T04:40:42;9.80;;;8.93;;
18499;SDS011;9379;52.134;11.576;2024-03-06T04:43:10;13.20;;;10.00;;
18499;SDS011;9379;52.134;11.576;2024-03-06T04:45:37;13.18;;;11.80;;
18499;SDS011;9379;52.134;11.576;2024-03-06T04:48:04;10.07;;;9.02;;
18499;SDS011;9379;52.134;11.576;2024-03-06T04:50:31;16.00;;;12.88;;
18499;SDS011;9379;52.134;11.576;2024-03-06T04:52:59;12.95;;;10.07;;
18499;SDS011;9379;52.134;11.576;2024-03-06T04:55:27;12.43;;;10.38;;
18499;SDS011;9379;52.134;11.576;2024-03-06T04:57:55;14.80;;;11.70;;
18499;SDS011;9379;52.134;11.576;2024-03-06T05:00:23;17.27;;;11.68;;
18499;SDS011;9379;52.134;11.576;2024-03-06T05:02:50;13.30;;;11.82;;
18499;SDS011;9379;52.134;11.576;2024-03-06T05:05:17;15.30;;;11.77;;
18499;SDS011;9379;52.134;11.576;2024-03-06T05:07:44;14.18;;;12.75;;
18499;SDS011;9379;52.134;11.576;2024-03-06T05:10:10;13.20;;;11.80;;
18499;SDS011;9379;52.134;11.576;2024-03-06T05:12:39;15.98;;;13.27;;
18499;SDS011;9379;52.134;11.576;2024-03-06T05:15:06;13.95;;;11.05;;
18499;SDS011;9379;52.134;11.576;2024-03-06T05:17:33;12.82;;;11.60;;
18499;SDS011;9379;52.134;11.576;2024-03-06T05:20:00;13.63;;;12.05;;
18499;SDS011;9379;52.134;11.576;2024-03-06T05:22:28;19.20;;;11.35;;
18499;SDS011;9379;52.134;11.576;2024-03-06T05:24:55;13.70;;;12.30;;
18499;SDS011;9379;52.134;11.576;2024-03-06T05:27:22;15.10;;;11.88;;
18499;SDS011;9379;52.134;11.576;2024-03-06T05:29:50;12.98;;;11.60;;
18499;SDS011;9379;52.134;11.576;2024-03-06T05:32:17;17.73;;;12.55;;
18499;SDS011;9379;52.134;11.576;2024-03-06T05:34:44;13.02;;;11.27;;
18499;SDS011;9379;52.134;11.576;2024-03-06T05:37:11;17.02;;;12.77;;
18499;SDS011;9379;52.134;11.576;2024-03-06T05:39:38;14.38;;;12.85;;
18499;SDS011;9379;52.134;11.576;2024-03-06T05:42:07;15.30;;;13.23;;
18499;SDS011;9379;52.134;11.576;2024-03-06T05:44:34;18.88;;;13.95;;
18499;SDS011;9379;52.134;11.576;2024-03-06T05:47:03;13.73;;;11.80;;
18499;SDS011;9379;52.134;11.576;2024-03-06T05:49:32;16.42;;;12.63;;
18499;SDS011;9379;52.134;11.576;2024-03-06T05:51:59;13.95;;;12.50;;
18499;SDS011;9379;52.134;11.576;2024-03-06T05:54:27;14.23;;;12.48;;
18499;SDS011;9379;52.134;11.576;2024-03-06T05:56:58;13.98;;;11.98;;
18499;SDS011;9379;52.134;11.576;2024-03-06T05:59:25;15.20;;;13.40;;
18499;SDS011;9379;52.134;11.576;2024-03-06T06:01:52;14.32;;;12.63;;
18499;SDS011;9379;52.134;11.576;2024-03-06T06:04:20;13.80;;;11.68;;
18499;SDS011;9379;52.134;11.576;2024-03-06T06:06:47;15.80;;;13.95;;
18499;SDS011;9379;52.134;11.576;2024-03-06T06:09:14;14.30;;;11.52;;
18499;SDS011;9379;52.134;11.576;2024-03-06T06:11:42;14.25;;;12.18;;
18499;SDS011;9379;52.134;11.576;2024-03-06T06:14:09;13.63;;;12.13;;
18499;SDS011;9379;52.134;11.576;2024-03-06T06:16:36;15.18;;;12.98;;
18499;SDS011;9379;52.134;11.576;2024-03-06T06:19:09;13.30;;;11.65;;
18499;SDS011;9379;52.134;11.576;2024-03-06T06:21:37;14.13;;;11.63;;
18499;SDS011;9379;52.134;11.576;2024-03-06T06:24:04;16.15;;;12.18;;
18499;SDS011;9379;52.134;11.576;2024-03-06T06:26:32;16.23;;;12.68;;
18499;SDS011;9379;52.134;11.576;2024-03-06T06:28:59;16.90;;;13.68;;
18499;SDS011;9379;52.134;11.576;2024-03-06T06:31:26;15.88;;;11.70;;
18499;SDS011;9379;52.134;11.576;2024-03-06T06:33:53;17.60;;;13.82;;
18499;SDS011;9379;52.134;11.576;2024-03-06T06:36:20;11.48;;;10.38;;
18499;SDS011;9379;52.134;11.576;2024-03-06T06:38:49;18.75;;;14.15;;
18499;SDS011;9379;52.134;11.576;2024-03-06T06:41:17;21.50;;;15.68;;
18499;SDS011;9379;52.134;11.576;2024-03-06T06:43:44;18.52;;;14.52;;
18499;SDS011;9379;52.134;11.576;2024-03-06T06:46:11;19.13;;;14.65;;
18499;SDS011;9379;52.134;11.576;2024-03-06T06:48:38;14.85;;;13.30;;
18499;SDS011;9379;52.134;11.576;2024-03-06T06:51:05;18.52;;;15.00;;
18499;SDS011;9379;52.134;11.576;2024-03-06T06:53:32;15.15;;;13.18;;
18499;SDS011;9379;52.134;11.576;2024-03-06T06:56:01;16.15;;;12.88;;
18499;SDS011;9379;52.134;11.576;2024-03-06T06:58:27;17.60;;;14.57;;
18499;SDS011;9379;52.134;11.576;2024-03-06T07:00:54;16.10;;;14.30;;
18499;SDS011;9379;52.134;11.576;2024-03-06T07:03:21;16.10;;;14.38;;
18499;SDS011;9379;52.134;11.576;2024-03-06T07:05:54;16.73;;;12.80;;
18499;SDS011;9379;52.134;11.576;2024-03-06T07:08:21;23.77;;;17.05;;
18499;SDS011;9379;52.134;11.576;2024-03-06T07:10:49;17.17;;;14.68;;
18499;SDS011;9379;52.134;11.576;2024-03-06T07:13:17;21.30;;;16.38;;
18499;SDS011;9379;52.134;11.576;2024-03-06T07:15:44;17.45;;;15.55;;
18499;SDS011;9379;52.134;11.576;2024-03-06T07:18:11;21.80;;;16.10;;
18499;SDS011;9379;52.134;11.576;2024-03-06T07:20:39;19.55;;;15.45;;
18499;SDS011;9379;52.134;11.576;2024-03-06T07:23:06;17.92;;;15.10;;
18499;SDS011;9379;52.134;11.576;2024-03-06T07:25:33;18.42;;;16.45;;
18499;SDS011;9379;52.134;11.576;2024-03-06T07:28:01;15.35;;;13.68;;
18499;SDS011;9379;52.134;11.576;2024-03-06T07:30:30;19.10;;;15.27;;
18499;SDS011;9379;52.134;11.576;2024-03-06T07:32:57;21.88;;;15.07;;
18499;SDS011;9379;52.134;11.576;2024-03-06T07:35:24;15.82;;;13.40;;
18499;SDS011;9379;52.134;11.576;2024-03-06T07:37:51;16.10;;;12.80;;
18499;SDS011;9379;52.134;11.576;2024-03-06T07:40:18;14.43;;;12.77;;
18499;SDS011;9379;52.134;11.576;2024-03-06T07:42:45;16.25;;;13.90;;
18499;SDS011;9379;52.134;11.576;2024-03-06T07:45:12;22.52;;;14.95;;
18499;SDS011;9379;52.134;11.576;2024-03-06T07:47:41;13.40;;;11.95;;
18499;SDS011;9379;52.134;11.576;2024-03-06T07:50:08;13.25;;;11.55;;
18499;SDS011;9379;52.134;11.576;2024-03-06T07:52:37;19.13;;;15.13;;
18499;SDS011;9379;52.134;11.576;2024-03-06T07:55:05;21.63;;;15.75;;
18499;SDS011;9379;52.134;11.576;2024-03-06T07:57:32;14.10;;;12.45;;
18499;SDS011;9379;52.134;11.576;2024-03-06T07:59:59;21.40;;;16.00;;
18499;SDS011;9379;52.134;11.576;2024-03-06T08:02:26;14.95;;;13.25;;
18499;SDS011;9379;52.134;11.576;2024-03-06T08:04:54;17.83;;;14.30;;
18499;SDS011;9379;52.134;11.576;2024-03-06T08:07:21;14.07;;;12.77;;
18499;SDS011;9379;52.134;11.576;2024-03-06T08:09:48;16.42;;;11.93;;
18499;SDS011;9379;52.134;11.576;2024-03-06T08:12:15;14.05;;;11.45;;
18499;SDS011;9379;52.134;11.576;2024-03-06T08:14:42;17.42;;;14.38;;
18499;SDS011;9379;52.134;11.576;2024-03-06T08:17:10;18.48;;;13.20;;
18499;SDS011;9379;52.134;11.576;2024-03-06T08:19:37;16.80;;;14.43;;
18499;SDS011;9379;52.134;11.576;2024-03-06T08:22:05;17.17;;;13.90;;
18499;SDS011;9379;52.134;11.576;2024-03-06T08:24:32;16.35;;;14.40;;
18499;SDS011;9379;52.134;11.576;2024-03-06T08:26:59;17.15;;;13.85;;
18499;SDS011;9379;52.134;11.576;2024-03-06T08:29:26;16.77;;;14.95;;
18499;SDS011;9379;52.134;11.576;2024-03-06T08:31:52;28.52;;;15.10;;
18499;SDS011;9379;52.134;11.576;2024-03-06T08:34:23;16.20;;;13.80;;
18499;SDS011;9379;52.134;11.576;2024-03-06T08:36:50;16.08;;;11.35;;
18499;SDS011;9379;52.134;11.576;2024-03-06T08:39:18;13.43;;;12.13;;
18499;SDS011;9379;52.134;11.576;2024-03-06T08:41:45;14.85;;;12.43;;
18499;SDS011;9379;52.134;11.576;2024-03-06T08:44:12;14.35;;;12.95;;
18499;SDS011;9379;52.134;11.576;2024-03-06T08:46:39;14.70;;;13.18;;
18499;SDS011;9379;52.134;11.576;2024-03-06T08:49:07;15.77;;;12.25;;
18499;SDS011;9379;52.134;11.576;2024-03-06T08:51:33;12.30;;;9.80;;
18499;SDS011;9379;52.134;11.576;2024-03-06T08:54:00;18.55;;;13.68;;
18499;SDS011;9379;52.134;11.576;2024-03-06T08:56:29;16.10;;;12.63;;
18499;SDS011;9379;52.134;11.576;2024-03-06T08:58:56;24.08;;;13.18;;
18499;SDS011;9379;52.134;11.576;2024-03-06T09:01:23;15.75;;;12.68;;
18499;SDS011;9379;52.134;11.576;2024-03-06T09:03:51;12.70;;;11.50;;
18499;SDS011;9379;52.134;11.576;2024-03-06T09:06:18;15.50;;;13.57;;
18499;SDS011;9379;52.134;11.576;2024-03-06T09:08:45;15.63;;;12.48;;
18499;SDS011;9379;52.134;11.576;2024-03-06T09:11:13;13.50;;;10.38;;
18499;SDS011;9379;52.134;11.576;2024-03-06T09:13:42;12.18;;;10.63;;
18499;SDS011;9379;52.134;11.576;2024-03-06T09:16:08;13.80;;;11.35;;
18499;SDS011;9379;52.134;11.576;2024-03-06T09:18:35;11.63;;;10.48;;
18499;SDS011;9379;52.134;11.576;2024-03-06T09:21:03;15.00;;;13.15;;
18499;SDS011;9379;52.134;11.576;2024-03-06T09:23:30;14.18;;;11.93;;
18499;SDS011;9379;52.134;11.576;2024-03-06T09:25:58;11.43;;;10.23;;
18499;SDS011;9379;52.134;11.576;2024-03-06T09:28:27;15.45;;;11.80;;
18499;SDS011;9379;52.134;11.576;2024-03-06T09:30:56;14.27;;;11.20;;
18499;SDS011;9379;52.134;11.576;2024-03-06T09:33:23;14.30;;;12.60;;
18499;SDS011;9379;52.134;11.576;2024-03-06T09:35:50;17.42;;;11.98;;
18499;SDS011;9379;52.134;11.576;2024-03-06T09:38:17;11.77;;;10.57;;
18499;SDS011;9379;52.134;11.576;2024-03-06T09:40:44;12.00;;;9.65;;
18499;SDS011;9379;52.134;11.576;2024-03-06T09:43:11;15.95;;;11.63;;
18499;SDS011;9379;52.134;11.576;2024-03-06T09:45:38;17.10;;;13.27;;
18499;SDS011;9379;52.134;11.576;2024-03-06T09:48:07;12.77;;;10.50;;
18499;SDS011;9379;52.134;11.576;2024-03-06T09:50:35;14.57;;;11.02;;
18499;SDS011;9379;52.134;11.576;2024-03-06T09:53:06;18.27;;;12.75;;
18499;SDS011;9379;52.134;11.576;2024-03-06T09:55:37;11.10;;;9.32;;
18499;SDS011;9379;52.134;11.576;2024-03-06T09:58:05;10.93;;;9.45;;
18499;SDS011;9379;52.134;11.576;2024-03-06T10:00:33;11.20;;;9.90;;
18499;SDS011;9379;52.134;11.576;2024-03-06T10:03:01;13.20;;;11.80;;
18499;SDS011;9379;52.134;11.576;2024-03-06T10:05:32;16.88;;;11.80;;
18499;SDS011;9379;52.134;11.576;2024-03-06T10:08:00;14.13;;;10.63;;
18499;SDS011;9379;52.134;11.576;2024-03-06T10:10:29;11.82;;;9.95;;
18499;SDS011;9379;52.134;11.576;2024-03-06T10:12:56;10.15;;;9.23;;
18499;SDS011;9379;52.134;11.576;2024-03-06T10:15:25;11.27;;;9.63;;
18499;SDS011;9379;52.134;11.576;2024-03-06T10:18:02;10.13;;;8.43;;
18499;SDS011;9379;52.134;11.576;2024-03-06T10:20:41;9.27;;;8.40;;
18499;SDS011;9379;52.134;11.576;2024-03-06T10:23:09;10.00;;;9.05;;
18499;SDS011;9379;52.134;11.576;2024-03-06T10:25:36;8.85;;;8.02;;
18499;SDS011;9379;52.134;11.576;2024-03-06T10:28:05;14.63;;;9.18;;
18499;SDS011;9379;52.134;11.576;2024-03-06T10:30:33;9.40;;;8.35;;
18499;SDS011;9379;52.134;11.576;2024-03-06T10:33:01;12.52;;;9.25;;
18499;SDS011;9379;52.134;11.576;2024-03-06T10:35:28;8.32;;;7.55;;
18499;SDS011;9379;52.134;11.576;2024-03-06T10:37:57;11.15;;;9.48;;
18499;SDS011;9379;52.134;11.576;2024-03-06T10:40:27;13.48;;;10.18;;
18499;SDS011;9379;52.134;11.576;2024-03-06T10:42:57;7.97;;;7.32;;
18499;SDS011;9379;52.134;11.576;2024-03-06T10:45:27;8.55;;;7.65;;
18499;SDS011;9379;52.134;11.576;2024-03-06T10:48:07;10.07;;;8.68;;
18499;SDS011;9379;52.134;11.576;2024-03-06T10:50:46;9.93;;;8.90;;
18499;SDS011;9379;52.134;11.576;2024-03-06T10:53:18;11.50;;;8.23;;
18499;SDS011;9379;52.134;11.576;2024-03-06T10:55:46;8.75;;;7.82;;
18499;SDS011;9379;52.134;11.576;2024-03-06T10:58:15;9.15;;;7.90;;
18499;SDS011;9379;52.134;11.576;2024-03-06T11:00:44;9.80;;;7.97;;
18499;SDS011;9379;52.134;11.576;2024-03-06T11:03:12;9.80;;;9.00;;
18499;SDS011;9379;52.134;11.576;2024-03-06T11:05:40;10.10;;;9.07;;
18499;SDS011;9379;52.134;11.576;2024-03-06T11:08:09;10.18;;;8.60;;
18499;SDS011;9379;52.134;11.576;2024-03-06T11:10:39;8.27;;;7.50;;
18499;SDS011;9379;52.134;11.576;2024-03-06T11:13:08;11.00;;;9.05;;
18499;SDS011;9379;52.134;11.576;2024-03-06T11:15:47;9.95;;;8.95;;
18499;SDS011;9379;52.134;11.576;2024-03-06T11:21:28;8.18;;;7.43;;
18499;SDS011;9379;52.134;11.576;2024-03-06T11:26:54;8.73;;;7.63;;
18499;SDS011;9379;52.134;11.576;2024-03-06T11:29:23;12.82;;;10.45;;
18499;SDS011;9379;52.134;11.576;2024-03-06T11:31:59;15.05;;;9.68;;
18499;SDS011;9379;52.134;11.576;2024-03-06T11:34:32;10.00;;;8.90;;
18499;SDS011;9379;52.134;11.576;2024-03-06T11:37:05;15.18;;;11.90;;
18499;SDS011;9379;52.134;11.576;2024-03-06T11:39:34;11.65;;;10.52;;
18499;SDS011;9379;52.134;11.576;2024-03-06T11:42:04;15.68;;;10.98;;
18499;SDS011;9379;52.134;11.576;2024-03-06T11:44:34;9.25;;;8.32;;
18499;SDS011;9379;52.134;11.576;2024-03-06T11:47:01;9.40;;;8.50;;
18499;SDS011;9379;52.134;11.576;2024-03-06T11:49:33;18.50;;;11.45;;
18499;SDS011;9379;52.134;11.576;2024-03-06T11:52:03;12.60;;;9.63;;
18499;SDS011;9379;52.134;11.576;2024-03-06T11:54:33;10.38;;;9.38;;
18499;SDS011;9379;52.134;11.576;2024-03-06T11:57:01;9.55;;;8.70;;
18499;SDS011;9379;52.134;11.576;2024-03-06T11:59:31;10.05;;;9.02;;
18499;SDS011;9379;52.134;11.576;2024-03-06T12:01:59;11.50;;;9.93;;
18499;SDS011;9379;52.134;11.576;2024-03-06T12:04:27;9.10;;;8.15;;
18499;SDS011;9379;52.134;11.576;2024-03-06T12:06:56;11.95;;;9.48;;
18499;SDS011;9379;52.134;11.576;2024-03-06T12:09:23;10.38;;;7.38;;
18499;SDS011;9379;52.134;11.576;2024-03-06T12:11:50;8.65;;;7.95;;
18499;SDS011;9379;52.134;11.576;2024-03-06T12:14:17;12.63;;;10.18;;
18499;SDS011;9379;52.134;11.576;2024-03-06T12:16:55;9.35;;;7.78;;
18499;SDS011;9379;52.134;11.576;2024-03-06T12:19:24;8.85;;;7.70;;
18499;SDS011;9379;52.134;11.576;2024-03-06T12:21:52;9.18;;;8.05;;
18499;SDS011;9379;52.134;11.576;2024-03-06T12:24:19;11.15;;;7.35;;
18499;SDS011;9379;52.134;11.576;2024-03-06T12:26:46;10.30;;;8.35;;
18499;SDS011;9379;52.134;11.576;2024-03-06T12:29:27;9.60;;;8.20;;
18499;SDS011;9379;52.134;11.576;2024-03-06T12:31:57;8.23;;;7.43;;
18499;SDS011;9379;52.134;11.576;2024-03-06T12:34:24;8.88;;;7.45;;
18499;SDS011;9379;52.134;11.576;2024-03-06T12:36:51;7.60;;;6.85;;
18499;SDS011;9379;52.134;11.576;2024-03-06T12:39:18;6.57;;;5.93;;
18499;SDS011;9379;52.134;11.576;2024-03-06T12:41:48;7.50;;;6.30;;
18499;SDS011;9379;52.134;11.576;2024-03-06T12:44:15;10.15;;;7.43;;
18499;SDS011;9379;52.134;11.576;2024-03-06T12:46:42;9.32;;;6.85;;
18499;SDS011;9379;52.134;11.576;2024-03-06T12:49:11;8.43;;;7.63;;
18499;SDS011;9379;52.134;11.576;2024-03-06T12:51:38;10.80;;;9.13;;
18499;SDS011;9379;52.134;11.576;2024-03-06T12:54:05;7.50;;;6.60;;
18499;SDS011;9379;52.134;11.576;2024-03-06T12:56:33;8.13;;;7.05;;
18499;SDS011;9379;52.134;11.576;2024-03-06T12:59:01;8.40;;;7.53;;
18499;SDS011;9379;52.134;11.576;2024-03-06T13:01:28;6.97;;;6.15;;
18499;SDS011;9379;52.134;11.576;2024-03-06T13:03:55;8.23;;;7.53;;
18499;SDS011;9379;52.134;11.576;2024-03-06T13:06:23;7.40;;;6.68;;
18499;SDS011;9379;52.134;11.576;2024-03-06T13:08:53;6.65;;;6.05;;
18499;SDS011;9379;52.134;11.576;2024-03-06T13:11:20;8.20;;;7.38;;
18499;SDS011;9379;52.134;11.576;2024-03-06T13:13:47;7.38;;;6.70;;
18499;SDS011;9379;52.134;11.576;2024-03-06T13:16:14;8.30;;;7.43;;
18499;SDS011;9379;52.134;11.576;2024-03-06T13:18:41;7.28;;;6.60;;
18499;SDS011;9379;52.134;11.576;2024-03-06T13:21:08;6.40;;;5.88;;
18499;SDS011;9379;52.134;11.576;2024-03-06T13:23:37;8.07;;;6.78;;
18499;SDS011;9379;52.134;11.576;2024-03-06T13:26:04;8.02;;;6.95;;
18499;SDS011;9379;52.134;11.576;2024-03-06T13:28:31;13.45;;;8.30;;
18499;SDS011;9379;52.134;11.576;2024-03-06T13:30:58;9.50;;;8.60;;
18499;SDS011;9379;52.134;11.576;2024-03-06T13:33:25;9.32;;;8.30;;
18499;SDS011;9379;52.134;11.576;2024-03-06T13:35:53;9.07;;;8.18;;
18499;SDS011;9379;52.134;11.576;2024-03-06T13:38:20;7.93;;;7.22;;
18499;SDS011;9379;52.134;11.576;2024-03-06T13:40:49;12.35;;;7.70;;
18499;SDS011;9379;52.134;11.576;2024-03-06T13:43:16;8.68;;;7.80;;
18499;SDS011;9379;52.134;11.576;2024-03-06T13:45:48;9.55;;;8.15;;
18499;SDS011;9379;52.134;11.576;2024-03-06T13:48:15;10.93;;;9.73;;
18499;SDS011;9379;52.134;11.576;2024-03-06T13:50:42;9.68;;;8.68;;
18499;SDS011;9379;52.134;11.576;2024-03-06T13:53:09;9.48;;;8.50;;
18499;SDS011;9379;52.134;11.576;2024-03-06T13:55:36;10.00;;;8.40;;
18499;SDS011;9379;52.134;11.576;2024-03-06T13:58:04;8.68;;;7.25;;
18499;SDS011;9379;52.134;11.576;2024-03-06T14:00:32;7.82;;;6.53;;
18499;SDS011;9379;52.134;11.576;2024-03-06T14:03:00;5.80;;;5.22;;
18499;SDS011;9379;52.134;11.576;2024-03-06T14:05:27;9.70;;;8.82;;
18499;SDS011;9379;52.134;11.576;2024-03-06T14:07:54;10.23;;;8.25;;
18499;SDS011;9379;52.134;11.576;2024-03-06T14:10:21;7.55;;;6.80;;
18499;SDS011;9379;52.134;11.576;2024-03-06T14:12:49;11.90;;;6.90;;
18499;SDS011;9379;52.134;11.576;2024-03-06T14:15:19;8.02;;;7.32;;
18499;SDS011;9379;52.134;11.576;2024-03-06T14:17:47;10.30;;;8.65;;
18499;SDS011;9379;52.134;11.576;2024-03-06T14:20:15;8.93;;;7.82;;
18499;SDS011;9379;52.134;11.576;2024-03-06T14:22:47;7.53;;;6.85;;
18499;SDS011;9379;52.134;11.576;2024-03-06T14:25:14;8.52;;;7.72;;
18499;SDS011;9379;52.134;11.576;2024-03-06T14:27:41;6.85;;;6.25;;
18499;SDS011;9379;52.134;11.576;2024-03-06T14:30:16;10.00;;;9.00;;
18499;SDS011;9379;52.134;11.576;2024-03-06T14:33:21;10.35;;;8.43;;
18499;SDS011;9379;52.134;11.576;2024-03-06T14:35:48;10.27;;;9.02;;
18499;SDS011;9379;52.134;11.576;2024-03-06T14:38:15;9.25;;;8.18;;
18499;SDS011;9379;52.134;11.576;2024-03-06T14:40:42;10.77;;;9.18;;
18499;SDS011;9379;52.134;11.576;2024-03-06T14:43:09;9.10;;;8.20;;
18499;SDS011;9379;52.134;11.576;2024-03-06T14:45:37;9.35;;;7.93;;
18499;SDS011;9379;52.134;11.576;2024-03-06T14:48:07;7.85;;;7.03;;
18499;SDS011;9379;52.134;11.576;2024-03-06T14:50:35;6.35;;;4.68;;
18499;SDS011;9379;52.134;11.576;2024-03-06T14:53:02;8.55;;;6.25;;